createdAt,value
2023-01-21T00:01:25.578Z,100848.50
2023-01-21T00:06:23.401Z,100858.53
2023-01-21T00:11:21.274Z,100848.56
2023-01-21T00:16:19.053Z,100843.66
2023-01-21T00:21:18.306Z,100864.53
2023-01-21T00:26:16.120Z,100873.41
2023-01-21T00:31:14.109Z,100873.41
2023-01-21T00:36:13.929Z,100876.78
2023-01-21T00:41:14.233Z,100876.94
2023-01-21T00:46:12.545Z,100873.44
2023-01-21T00:51:10.810Z,100871.63
2023-01-21T00:56:09.657Z,100869.84
2023-01-21T01:01:10.033Z,100873.81
2023-01-21T01:06:08.796Z,100881.78
2023-01-21T01:11:07.135Z,100883.56
2023-01-21T01:16:05.151Z,100887.91
2023-01-21T01:21:04.805Z,100872.59
2023-01-21T01:26:04.016Z,100894.81
2023-01-21T01:31:02.319Z,100906.44
2023-01-21T01:36:02.564Z,100899.38
2023-01-21T01:41:02.218Z,100898.44
2023-01-21T01:46:00.082Z,100911.72
2023-01-21T01:50:59.370Z,100921.75
2023-01-21T01:55:57.889Z,100917.53
2023-01-21T02:00:57.094Z,100920.00
2023-01-21T02:05:56.635Z,100916.41
2023-01-21T02:10:56.768Z,100916.75
2023-01-21T02:16:01.873Z,100889.28
2023-01-21T02:21:14.634Z,100880.38
2023-01-21T02:26:25.128Z,100881.88
2023-01-21T02:31:31.042Z,100878.34
2023-01-21T02:36:43.980Z,100883.56
2023-01-21T02:41:50.675Z,100893.97
2023-01-21T02:46:51.940Z,100880.16
2023-01-21T02:51:50.129Z,100882.44
2023-01-21T02:56:49.332Z,100887.09
2023-01-21T03:01:53.979Z,100885.06
2023-01-21T03:06:58.017Z,100887.09
2023-01-21T03:12:06.533Z,100889.81
2023-01-21T03:17:06.344Z,100897.72
2023-01-21T03:22:06.349Z,100904.88
2023-01-21T03:27:10.106Z,100889.03
2023-01-21T03:32:10.251Z,100887.34
2023-01-21T03:37:10.281Z,100883.97
2023-01-21T03:42:09.881Z,100878.84
2023-01-21T03:47:12.311Z,100872.06
2023-01-21T03:52:11.538Z,100873.91
2023-01-21T03:57:10.711Z,100884.25
2023-01-21T04:02:08.844Z,100892.09
2023-01-21T04:07:06.707Z,100892.13
2023-01-21T04:12:04.555Z,100892.22
2023-01-21T04:17:03.854Z,100897.38
2023-01-21T04:22:01.731Z,100899.94
2023-01-21T04:26:59.565Z,100900.91
2023-01-21T04:31:57.407Z,100914.63
2023-01-21T04:36:56.700Z,100905.19
2023-01-21T04:41:54.504Z,100909.53
2023-01-21T04:46:52.308Z,100910.28
2023-01-21T04:51:50.105Z,100927.38
2023-01-21T04:56:49.285Z,100938.59
2023-01-21T05:01:47.099Z,100938.59
2023-01-21T05:06:44.887Z,100943.75
2023-01-21T05:11:42.729Z,100932.56
2023-01-21T05:16:41.973Z,100943.75
2023-01-21T05:21:39.796Z,100957.50
2023-01-21T05:26:37.680Z,100962.72
2023-01-21T05:31:35.566Z,100959.31
2023-01-21T05:36:34.781Z,100962.81
2023-01-21T05:41:32.721Z,100963.56
2023-01-21T05:46:30.568Z,100951.50
2023-01-21T05:51:28.419Z,100936.72
2023-01-21T05:56:27.593Z,100937.34
2023-01-21T06:01:25.453Z,100947.59
2023-01-21T06:06:23.336Z,100928.38
2023-01-21T06:11:21.145Z,100935.91
2023-01-21T06:16:20.323Z,100954.59
2023-01-21T06:21:18.169Z,100964.84
2023-01-21T06:26:16.044Z,100969.06
2023-01-21T06:31:13.958Z,100947.16
2023-01-21T06:36:13.186Z,100960.66
2023-01-21T06:41:10.972Z,100968.75
2023-01-21T06:46:08.830Z,100963.53
2023-01-21T06:51:06.963Z,100971.25
2023-01-21T06:56:06.368Z,100973.44
2023-01-21T07:01:04.396Z,100976.50
2023-01-21T07:06:02.213Z,100965.06
2023-01-21T07:11:00.034Z,100972.88
2023-01-21T07:16:01.932Z,100964.56
2023-01-21T07:20:59.835Z,100960.78
2023-01-21T07:25:58.059Z,100970.66
2023-01-21T07:30:55.921Z,100969.72
2023-01-21T07:35:55.174Z,100973.53
2023-01-21T07:40:53.005Z,100966.41
2023-01-21T07:45:51.157Z,100973.19
2023-01-21T07:50:49.057Z,100969.28
2023-01-21T07:55:48.315Z,100971.56
2023-01-21T08:00:46.164Z,100978.81
2023-01-21T08:05:43.978Z,100970.06
2023-01-21T08:10:41.762Z,100970.19
2023-01-21T08:15:40.970Z,100968.19
2023-01-21T08:20:38.846Z,100962.50
2023-01-21T08:25:36.804Z,100967.81
2023-01-21T08:30:34.905Z,100966.84
2023-01-21T08:35:34.866Z,100955.88
2023-01-21T08:40:32.744Z,100954.13
2023-01-21T08:45:31.058Z,100957.47
2023-01-21T08:50:28.936Z,100955.16
2023-01-21T08:55:28.261Z,100950.50
2023-01-21T09:00:26.572Z,100955.31
2023-01-21T09:05:24.415Z,100944.69
2023-01-21T09:10:36.079Z,100940.81
2023-01-21T09:15:39.501Z,100936.47
2023-01-21T09:20:37.435Z,100926.06
2023-01-21T09:25:35.360Z,100912.38
2023-01-21T09:30:33.233Z,100915.50
2023-01-21T09:35:32.413Z,100926.72
2023-01-21T09:40:30.316Z,100917.53
2023-01-21T09:45:28.220Z,100912.13
2023-01-21T09:50:26.071Z,100903.63
2023-01-21T09:55:26.965Z,100889.69
2023-01-21T10:00:32.461Z,100879.00
2023-01-21T10:05:54.110Z,100877.88
2023-01-21T10:10:58.795Z,100874.34
2023-01-21T10:16:03.696Z,100864.16
2023-01-21T10:21:05.021Z,100874.59
2023-01-21T10:26:07.667Z,100856.88
2023-01-21T10:31:08.394Z,100848.31
2023-01-21T10:36:30.248Z,100845.38
2023-01-21T10:41:36.282Z,100846.81
2023-01-21T10:46:38.053Z,100858.06
2023-01-21T10:51:39.275Z,100839.69
2023-01-21T10:56:45.092Z,100825.69
2023-01-21T11:01:44.676Z,100837.97
2023-01-21T11:06:43.839Z,100841.38
2023-01-21T11:11:43.092Z,100835.00
2023-01-21T11:16:44.318Z,100833.31
2023-01-21T11:21:42.357Z,100820.94
2023-01-21T11:26:50.217Z,100817.16
2023-01-21T11:31:50.845Z,100812.31
2023-01-21T11:36:59.365Z,100820.78
2023-01-21T11:41:58.350Z,100826.47
2023-01-21T11:46:57.576Z,100832.41
2023-01-21T11:52:14.714Z,100818.38
2023-01-21T11:57:33.292Z,100818.38
2023-01-21T12:02:34.715Z,100823.28
2023-01-21T12:07:34.961Z,100816.31
2023-01-21T12:12:39.368Z,100800.22
2023-01-21T12:17:46.794Z,100798.16
2023-01-21T12:22:52.308Z,100803.50
2023-01-21T12:27:54.907Z,100805.44
2023-01-21T12:32:56.874Z,100806.31
2023-01-21T12:37:57.288Z,100808.31
2023-01-21T12:42:57.144Z,100819.25
2023-01-21T12:47:57.997Z,100824.41
2023-01-21T12:53:05.310Z,100827.78
2023-01-21T12:58:06.017Z,100836.50
2023-01-21T13:03:13.427Z,100841.53
2023-01-21T13:08:26.716Z,100845.31
2023-01-21T13:13:27.751Z,100846.66
2023-01-21T13:18:34.651Z,100849.06
2023-01-21T13:23:38.418Z,100853.47
2023-01-21T13:28:39.993Z,100860.50
2023-01-21T13:33:43.463Z,100855.53
2023-01-21T13:38:46.575Z,100858.22
2023-01-21T13:43:54.674Z,100864.97
2023-01-21T13:49:09.788Z,100869.91
2023-01-21T13:54:25.196Z,100866.19
2023-01-21T13:59:26.376Z,100865.09
2023-01-21T14:04:30.051Z,100878.00
2023-01-21T14:09:32.987Z,100877.03
2023-01-21T14:14:51.940Z,100873.97
2023-01-21T14:20:05.783Z,100876.84
2023-01-21T14:25:18.795Z,100871.63
2023-01-21T14:30:18.744Z,100883.91
2023-01-21T14:35:21.024Z,100882.59
2023-01-21T14:40:21.113Z,100884.91
2023-01-21T14:45:22.171Z,100881.09
2023-01-21T14:50:34.972Z,100890.41
2023-01-21T14:55:34.336Z,100891.13
2023-01-21T15:00:33.522Z,100897.69
2023-01-21T15:05:35.939Z,100902.38
2023-01-21T15:10:36.567Z,100897.22
2023-01-21T15:15:36.927Z,100898.78
2023-01-21T15:20:49.816Z,100900.47
2023-01-21T15:26:05.370Z,100896.41
2023-01-21T15:31:04.084Z,100894.06
2023-01-21T15:36:03.284Z,100900.81
2023-01-21T15:41:05.735Z,100902.19
2023-01-21T15:46:13.636Z,100903.44
2023-01-21T15:51:20.581Z,100904.00
2023-01-21T15:56:26.080Z,100910.28
2023-01-21T16:01:31.142Z,100919.06
2023-01-21T16:06:35.868Z,100920.56
2023-01-21T16:11:40.549Z,100915.66
2023-01-21T16:16:47.075Z,100915.19
2023-01-21T16:21:46.780Z,100919.84
2023-01-21T16:26:44.947Z,100938.13
2023-01-21T16:31:48.365Z,100943.75
2023-01-21T16:36:46.373Z,100955.84
2023-01-21T16:41:44.272Z,100953.81
2023-01-21T16:46:42.224Z,100952.66
2023-01-21T16:51:42.283Z,100962.94
2023-01-21T16:56:47.335Z,100965.13
2023-01-21T17:01:45.338Z,100982.84
2023-01-21T17:06:46.088Z,100992.81
2023-01-21T17:11:46.936Z,101004.03
2023-01-21T17:16:44.886Z,101001.59
2023-01-21T17:21:46.460Z,101006.44
2023-01-21T17:26:45.639Z,101009.56
2023-01-21T17:31:44.090Z,101029.03
2023-01-21T17:36:42.838Z,101029.53
2023-01-21T17:41:44.881Z,101026.84
2023-01-21T17:46:45.642Z,101026.06
2023-01-21T17:51:44.221Z,101027.91
2023-01-21T17:56:49.547Z,101034.38
2023-01-21T18:01:47.813Z,101038.84
2023-01-21T18:06:45.854Z,101038.16
2023-01-21T18:11:46.680Z,101046.28
2023-01-21T18:16:45.540Z,101045.56
2023-01-21T18:21:44.040Z,101046.16
2023-01-21T18:26:41.990Z,101051.06
2023-01-21T18:31:41.568Z,101047.69
2023-01-21T18:36:39.662Z,101053.66
2023-01-21T18:41:37.516Z,101063.91
2023-01-21T18:46:39.613Z,101067.69
2023-01-21T18:51:39.044Z,101072.47
2023-01-21T18:56:37.283Z,101083.88
2023-01-21T19:01:35.903Z,101078.09
2023-01-21T19:06:34.232Z,101089.63
2023-01-21T19:11:33.775Z,101085.25
2023-01-21T19:16:32.462Z,101088.94
2023-01-21T19:21:30.480Z,101088.75
2023-01-21T19:26:28.423Z,101084.38
2023-01-21T19:31:27.828Z,101086.34
2023-01-21T19:36:26.729Z,101084.69
2023-01-21T19:41:25.764Z,101079.03
2023-01-21T19:46:24.266Z,101087.13
2023-01-21T19:51:23.634Z,101095.84
2023-01-21T19:56:23.728Z,101107.41
2023-01-21T20:01:21.695Z,101110.00
2023-01-21T20:06:20.468Z,101110.72
2023-01-21T20:11:22.096Z,101105.81
2023-01-21T20:16:21.384Z,101113.34
2023-01-21T20:21:19.493Z,101107.91
2023-01-21T20:26:18.767Z,101121.75
2023-01-21T20:31:18.160Z,101109.63
2023-01-21T20:36:18.252Z,101110.69
2023-01-21T20:41:16.153Z,101104.75
2023-01-21T20:46:16.619Z,101101.78
2023-01-21T20:51:15.875Z,101095.66
2023-01-21T20:56:17.621Z,101135.50
2023-01-21T21:01:16.031Z,101129.19
2023-01-21T21:06:16.431Z,101132.44
2023-01-21T21:11:15.412Z,101126.38
2023-01-21T21:16:19.066Z,101105.19
2023-01-21T21:21:21.100Z,101068.69
2023-01-21T21:26:22.321Z,101019.94
2023-01-21T21:31:20.322Z,100978.88
2023-01-21T21:36:20.805Z,101097.28
2023-01-21T21:41:36.848Z,101095.00
2023-01-21T21:46:52.365Z,101099.47
2023-01-21T21:51:51.632Z,101081.03
2023-01-21T21:56:49.479Z,101105.50
2023-01-21T22:01:47.363Z,101093.13
2023-01-21T22:06:45.210Z,101082.44
2023-01-21T22:11:44.388Z,101077.06
2023-01-21T22:16:42.389Z,101087.34
2023-01-21T22:21:40.258Z,101052.88
2023-01-21T22:26:38.089Z,101087.22
2023-01-21T22:31:37.545Z,101114.44
2023-01-21T22:36:35.414Z,101112.72
2023-01-21T22:41:33.926Z,101127.88
2023-01-21T22:46:31.774Z,101138.25
2023-01-21T22:51:31.088Z,101138.72
2023-01-21T22:56:49.612Z,101120.09
2023-01-21T23:01:48.815Z,101117.81
2023-01-21T23:06:48.927Z,101134.63
2023-01-21T23:11:46.812Z,101155.19
2023-01-21T23:16:44.636Z,101158.09
2023-01-21T23:21:42.510Z,101184.22
2023-01-21T23:26:41.719Z,101182.50
2023-01-21T23:31:39.600Z,101161.03
2023-01-21T23:36:37.452Z,101203.00
2023-01-21T23:41:35.275Z,101223.38
2023-01-21T23:46:34.490Z,101204.53
2023-01-21T23:51:32.438Z,101201.06
2023-01-21T23:56:30.217Z,101192.34
